Time;durP1;ratioP1;P1;durP2;ratioP2;P2;SDS_P1;SDS_P2;PMS_P1;PMS_P2;Temp;Humidity;BMP_temperature;BMP_pressure;BME280_temperature;BME280_humidity;BME280_pressure;Samples;Min_cycle;Max_cycle;Signal;HPM_P1;HPM_P2
2022/08/03 00:02:10;;;;;;;1.77;1.67;;;;;;;20.15;59.30;94922.25;5097574;28;20215;-70
2022/08/03 00:04:38;;;;;;;2.20;2.00;;;;;;;20.10;59.45;94930.28;5096420;28;20192;-70
2022/08/03 00:07:09;;;;;;;2.28;2.08;;;;;;;20.05;59.38;94919.56;5096371;28;20196;-71
2022/08/03 00:09:36;;;;;;;2.47;1.98;;;;;;;20.00;59.28;94920.00;5096778;28;20207;-70
2022/08/03 00:12:10;;;;;;;2.05;1.95;;;;;;;19.93;59.50;94918.06;5095983;28;20600;-70
2022/08/03 00:14:36;;;;;;;2.25;2.08;;;;;;;19.94;59.96;94914.88;5096925;28;20615;-70
2022/08/03 00:17:04;;;;;;;2.00;1.90;;;;;;;19.94;60.03;94912.06;5097279;28;20192;-70
2022/08/03 00:19:31;;;;;;;1.75;1.63;;;;;;;20.01;59.84;94913.19;5096945;28;20199;-70
2022/08/03 00:22:02;;;;;;;2.28;2.00;;;;;;;20.01;60.06;94910.38;5096847;28;20180;-70
2022/08/03 00:24:31;;;;;;;2.17;1.70;;;;;;;19.97;60.03;94910.44;5095927;28;20208;-69
2022/08/03 00:26:57;;;;;;;2.08;1.98;;;;;;;19.94;59.94;94912.06;5097119;28;20253;-69
2022/08/03 00:29:28;;;;;;;2.28;2.08;;;;;;;19.91;59.98;94914.91;5095906;28;20192;-69
2022/08/03 00:31:54;;;;;;;2.42;2.10;;;;;;;19.91;60.03;94917.72;5097264;28;20222;-68
2022/08/03 00:34:22;;;;;;;2.55;2.10;;;;;;;19.84;60.42;94921.38;5095520;28;20616;-69
2022/08/03 00:36:52;;;;;;;2.03;1.90;;;;;;;19.84;60.37;94920.59;5096748;28;20192;-68
2022/08/03 00:39:20;;;;;;;2.88;2.13;;;;;;;19.86;60.10;94910.56;5096322;28;20677;-69
2022/08/03 00:41:48;;;;;;;2.08;1.88;;;;;;;19.81;60.17;94910.22;5096329;28;20196;-71
2022/08/03 00:44:16;;;;;;;2.03;1.92;;;;;;;19.80;60.74;94917.84;5095641;28;20205;-71
2022/08/03 00:46:45;;;;;;;2.92;2.10;;;;;;;19.81;60.27;94919.41;5096412;28;20508;-71
2022/08/03 00:49:15;;;;;;;1.90;1.80;;;;;;;19.80;60.41;94915.03;5095678;28;20200;-70
2022/08/03 00:51:43;;;;;;;3.58;2.28;;;;;;;19.78;60.23;94920.25;5095465;28;20188;-70
2022/08/03 00:54:10;;;;;;;3.00;2.33;;;;;;;19.70;60.38;94910.34;5095095;28;20236;-70
2022/08/03 00:56:38;;;;;;;2.20;2.00;;;;;;;19.68;60.71;94909.94;5096113;28;20195;-70
2022/08/03 00:59:05;;;;;;;2.17;1.92;;;;;;;19.71;61.03;94904.31;5096306;28;20505;-70
2022/08/03 01:01:33;;;;;;;2.75;1.77;;;;;;;19.69;60.48;94909.56;5096248;28;20193;-70
2022/08/03 01:04:03;;;;;;;2.13;1.90;;;;;;;19.68;61.06;94907.16;5095165;28;20269;-70
2022/08/03 01:06:36;;;;;;;3.58;2.10;;;;;;;19.64;61.17;94909.19;5096197;28;20195;-72
2022/08/03 01:09:12;;;;;;;2.20;2.00;;;;;;;19.66;60.82;94915.19;5094933;28;20209;-73
2022/08/03 01:11:47;;;;;;;2.60;2.15;;;;;;;19.64;60.90;94904.38;5094858;28;20188;-73
2022/08/03 01:14:21;;;;;;;2.15;2.03;;;;;;;19.61;61.50;94908.00;5095987;28;20180;-73
2022/08/03 01:16:54;;;;;;;2.33;2.20;;;;;;;19.58;61.40;94908.06;5096030;28;20250;-73
2022/08/03 01:19:36;;;;;;;2.35;2.15;;;;;;;19.48;61.04;94902.13;5095119;28;20192;-73
2022/08/03 01:22:16;;;;;;;3.22;2.08;;;;;;;19.45;61.76;94897.38;5095271;28;20180;-73
2022/08/03 01:24:51;;;;;;;2.22;2.13;;;;;;;19.51;61.56;94894.94;5095869;28;20275;-71
2022/08/03 01:27:21;;;;;;;2.28;2.08;;;;;;;19.57;61.08;94892.44;5095038;28;20242;-70
2022/08/03 01:30:02;;;;;;;3.10;2.20;;;;;;;19.62;61.08;94904.03;5095590;28;20188;-70
2022/08/03 01:32:41;;;;;;;3.38;2.00;;;;;;;19.58;61.31;94894.84;5095846;28;20199;-70
2022/08/03 01:35:12;;;;;;;2.30;2.10;;;;;;;19.54;61.24;94908.09;5095264;28;20196;-70
2022/08/03 01:37:42;;;;;;;2.60;2.40;;;;;;;19.47;61.06;94902.56;5094677;28;20200;-70
2022/08/03 01:40:12;;;;;;;2.28;2.00;;;;;;;19.38;61.37;94907.81;5094643;28;20212;-70
2022/08/03 01:42:40;;;;;;;3.22;2.03;;;;;;;19.38;61.62;94917.00;5094505;28;20189;-70
2022/08/03 01:45:13;;;;;;;3.47;2.17;;;;;;;19.40;61.45;94911.00;5094404;28;20196;-70
2022/08/03 01:47:41;;;;;;;2.45;2.25;;;;;;;19.32;61.31;94909.47;5095478;28;20198;-70
2022/08/03 01:50:11;;;;;;;2.80;2.22;;;;;;;19.32;61.58;94915.06;5095189;28;20203;-70
2022/08/03 01:52:41;;;;;;;4.50;2.20;;;;;;;19.34;61.43;94907.06;5094666;28;20261;-70
2022/08/03 01:55:10;;;;;;;2.97;2.05;;;;;;;19.34;61.87;94907.06;5094993;28;20271;-70
2022/08/03 01:57:38;;;;;;;4.45;2.55;;;;;;;19.33;61.50;94906.28;5095057;28;20218;-70
2022/08/03 02:00:11;;;;;;;3.42;2.60;;;;;;;19.29;61.79;94910.31;5094682;28;20203;-69
2022/08/03 02:02:43;;;;;;;3.10;2.40;;;;;;;19.22;61.90;94914.75;5095005;28;20679;-69
2022/08/03 02:05:11;;;;;;;4.80;2.20;;;;;;;19.22;61.73;94911.19;5094137;28;20207;-68
2022/08/03 02:07:40;;;;;;;3.47;2.10;;;;;;;19.15;61.69;94914.03;5094958;28;20195;-69
2022/08/03 02:10:10;;;;;;;4.78;2.20;;;;;;;19.11;62.29;94913.28;5095388;28;20181;-69
2022/08/03 02:12:37;;;;;;;3.45;2.20;;;;;;;19.12;62.36;94912.06;5095261;28;20199;-69
2022/08/03 02:15:06;;;;;;;3.33;2.35;;;;;;;19.16;61.87;94912.81;5094977;28;20176;-69
2022/08/03 02:17:35;;;;;;;2.35;2.10;;;;;;;19.13;62.10;94910.84;5095157;28;20188;-69
2022/08/03 02:20:07;;;;;;;3.08;2.17;;;;;;;19.07;62.53;94906.91;5094408;28;20204;-70
2022/08/03 02:22:36;;;;;;;2.65;2.00;;;;;;;19.08;61.82;94912.09;5095186;28;20181;-70
2022/08/03 02:25:04;;;;;;;4.95;2.53;;;;;;;19.10;62.06;94903.28;5094016;28;20192;-70
2022/08/03 02:27:32;;;;;;;2.90;2.10;;;;;;;19.02;62.21;94910.94;5094020;28;20204;-70
2022/08/03 02:30:04;;;;;;;3.95;2.40;;;;;;;18.92;62.10;94906.25;5094268;28;20218;-70
2022/08/03 02:32:36;;;;;;;3.05;2.25;;;;;;;18.86;62.34;94905.88;5096983;28;20181;-69
2022/08/03 02:35:09;;;;;;;2.47;2.25;;;;;;;18.86;62.52;94897.47;5099135;28;20181;-69
2022/08/03 02:37:42;;;;;;;2.47;2.25;;;;;;;18.90;62.75;94900.25;5099028;28;20552;-69
2022/08/03 02:40:12;;;;;;;3.08;2.22;;;;;;;18.95;62.65;94909.00;5081021;28;20204;-69
2022/08/03 02:42:39;;;;;;;2.72;2.53;;;;;;;18.92;62.60;94901.44;5098072;28;20200;-71
2022/08/03 02:45:11;;;;;;;2.58;2.40;;;;;;;18.91;62.62;94899.81;5098942;28;20215;-71
2022/08/03 02:47:40;;;;;;;2.92;2.40;;;;;;;18.92;62.65;94892.25;5098790;28;20253;-71
2022/08/03 02:50:09;;;;;;;3.08;2.33;;;;;;;18.87;62.55;94892.69;5098837;28;20192;-72
2022/08/03 02:52:37;;;;;;;5.40;2.40;;;;;;;18.75;62.41;94908.72;5097614;28;20196;-72
2022/08/03 02:55:07;;;;;;;3.25;2.20;;;;;;;18.68;62.18;94905.97;5097334;28;20236;-72
2022/08/03 02:57:36;;;;;;;2.45;2.25;;;;;;;18.62;62.43;94895.63;5097732;28;20199;-69
2022/08/03 03:00:05;;;;;;;3.55;2.35;;;;;;;18.68;62.85;94896.78;5097747;28;20196;-70
2022/08/03 03:02:34;;;;;;;3.10;2.60;;;;;;;18.65;62.87;94912.34;5097644;28;20292;-71
2022/08/03 03:05:02;;;;;;;3.28;2.40;;;;;;;18.58;62.47;94915.19;5098490;28;20201;-70
2022/08/03 03:07:30;;;;;;;3.30;2.30;;;;;;;18.55;62.98;94912.41;5098494;28;20192;-70
2022/08/03 03:09:59;;;;;;;2.58;2.38;;;;;;;18.61;62.79;94919.19;5098506;28;20212;-69
2022/08/03 03:12:28;;;;;;;2.53;2.33;;;;;;;18.65;62.73;94915.16;5098198;28;20181;-69
2022/08/03 03:14:56;;;;;;;2.97;2.60;;;;;;;18.62;62.78;94927.13;5098225;28;20208;-69
2022/08/03 03:17:24;;;;;;;4.90;2.67;;;;;;;18.58;62.96;94923.56;5098333;28;20257;-70
2022/08/03 03:19:52;;;;;;;2.83;2.40;;;;;;;18.59;63.00;94927.97;5097422;28;20200;-68
2022/08/03 03:22:21;;;;;;;2.53;2.33;;;;;;;18.61;62.83;94936.72;5097259;28;20196;-69
2022/08/03 03:24:54;;;;;;;4.28;2.63;;;;;;;18.57;62.40;94927.56;5098117;28;20207;-69
2022/08/03 03:27:22;;;;;;;3.78;2.50;;;;;;;18.64;62.81;94938.72;5097259;28;20207;-69
2022/08/03 03:29:50;;;;;;;4.20;2.75;;;;;;;18.62;62.33;94938.31;5097740;28;20525;-69
2022/08/03 03:32:18;;;;;;;4.65;2.60;;;;;;;18.58;62.28;94940.34;5097959;28;20231;-69
2022/08/03 03:34:47;;;;;;;2.95;2.53;;;;;;;18.56;62.63;94941.97;5098070;28;20188;-69
2022/08/03 03:37:15;;;;;;;2.65;2.45;;;;;;;18.56;62.15;94941.97;5096887;28;20196;-69
2022/08/03 03:39:43;;;;;;;2.88;2.58;;;;;;;18.55;62.16;94940.34;5096941;28;20204;-69
2022/08/03 03:42:15;;;;;;;2.75;2.55;;;;;;;18.55;62.18;94948.72;5097818;28;20200;-69
2022/08/03 03:44:43;;;;;;;3.28;2.60;;;;;;;18.54;62.09;94959.09;5096444;28;20261;-69
2022/08/03 03:47:14;;;;;;;3.45;2.83;;;;;;;18.55;61.95;94957.91;5096859;28;20207;-69
2022/08/03 03:49:41;;;;;;;3.15;2.80;;;;;;;18.52;62.07;94956.75;5097340;28;20197;-71
2022/08/03 03:52:08;;;;;;;3.45;2.83;;;;;;;18.53;61.99;94954.72;5096868;28;20196;-71
2022/08/03 03:54:44;;;;;;;3.20;2.60;;;;;;;18.55;62.41;94957.09;5096430;28;20232;-70
2022/08/03 03:57:11;;;;;;;7.18;3.08;;;;;;;18.62;62.41;94952.28;5096662;28;20199;-70
2022/08/03 03:59:40;;;;;;;2.80;2.40;;;;;;;18.65;62.62;94957.06;5097126;28;20612;-70
2022/08/03 04:02:10;;;;;;;3.53;2.83;;;;;;;18.66;62.48;94952.25;5097655;28;20189;-70
2022/08/03 04:13:03;;;;;;;5.32;3.05;;;;;;;18.66;63.42;94946.66;5096967;28;20173;-69
2022/08/03 04:15:34;;;;;;;4.32;3.30;;;;;;;18.69;63.11;94946.66;5096090;28;20203;-69
2022/08/03 04:18:03;;;;;;;6.32;3.25;;;;;;;18.71;63.51;94949.88;5097176;28;20257;-69
2022/08/03 04:20:33;;;;;;;7.68;3.40;;;;;;;18.73;63.50;94949.44;5096204;28;20208;-69
2022/08/03 04:23:03;;;;;;;4.97;3.80;;;;;;;18.75;63.71;94950.63;5097093;28;20196;-69
2022/08/03 04:25:33;;;;;;;4.57;3.17;;;;;;;18.80;63.49;94948.63;5096627;28;20208;-69
2022/08/03 04:28:03;;;;;;;5.28;3.55;;;;;;;18.83;63.33;94950.59;5096939;28;20189;-69
2022/08/03 04:30:38;;;;;;;5.85;3.60;;;;;;;18.82;62.95;94947.00;5095983;28;20196;-69
2022/08/03 04:33:07;;;;;;;5.30;3.70;;;;;;;18.81;63.10;94953.81;5096876;28;20267;-69
2022/08/03 04:35:36;;;;;;;4.60;3.33;;;;;;;18.87;62.22;94945.78;5096945;28;20181;-69
2022/08/03 04:38:07;;;;;;;4.40;3.35;;;;;;;18.95;63.02;94953.72;5096863;28;20257;-69
2022/08/03 04:40:37;;;;;;;4.72;3.67;;;;;;;18.94;62.93;94959.69;5095785;28;20199;-69
2022/08/03 04:43:05;;;;;;;4.25;3.45;;;;;;;19.02;62.95;94957.66;5096131;28;20203;-69
2022/08/03 04:45:36;;;;;;;5.88;3.42;;;;;;;19.03;62.47;94962.84;5096586;28;20204;-69
2022/08/03 04:48:05;;;;;;;3.85;3.45;;;;;;;19.11;61.86;94963.59;5096644;28;20188;-69
2022/08/03 04:50:34;;;;;;;4.95;3.22;;;;;;;19.14;61.33;94973.94;5095934;28;20193;-69
2022/08/03 04:53:03;;;;;;;3.47;3.17;;;;;;;19.21;61.95;94968.31;5096330;28;20238;-69
2022/08/03 04:55:32;;;;;;;3.67;3.35;;;;;;;19.29;61.63;94966.25;5094942;28;20240;-69
2022/08/03 04:58:05;;;;;;;5.95;3.20;;;;;;;19.35;61.61;94970.97;5096338;28;20615;-69
2022/08/03 05:00:33;;;;;;;4.07;3.67;;;;;;;19.38;61.73;94972.16;5095530;28;20219;-69
2022/08/03 05:03:06;;;;;;;3.83;3.53;;;;;;;19.39;61.77;94980.13;5096711;28;20565;-69
2022/08/03 05:05:34;;;;;;;4.50;3.53;;;;;;;19.42;61.53;94975.72;5095008;28;20281;-69
2022/08/03 05:08:02;;;;;;;11.75;10.63;;;;;;;19.46;61.42;94982.88;5094968;28;20254;-69
2022/08/03 05:10:32;;;;;;;14.18;13.00;;;;;;;19.51;60.86;94986.44;5095311;28;20203;-69
2022/08/03 05:13:03;;;;;;;21.70;19.90;;;;;;;19.57;60.81;94988.38;5095320;28;20204;-69
2022/08/03 05:15:31;;;;;;;8.55;7.07;;;;;;;19.61;61.02;94983.53;5095166;28;20221;-69
2022/08/03 05:17:58;;;;;;;7.22;6.53;;;;;;;19.65;61.47;94987.13;5096102;28;20184;-69
2022/08/03 05:20:28;;;;;;;7.22;5.45;;;;;;;19.67;61.47;94992.31;5095672;28;20196;-69
2022/08/03 05:22:56;;;;;;;6.30;5.43;;;;;;;19.69;61.76;94995.50;5095236;28;20273;-72
2022/08/03 05:25:23;;;;;;;9.05;8.15;;;;;;;19.71;61.83;94999.44;5094971;28;20215;-72
2022/08/03 05:27:51;;;;;;;7.28;6.68;;;;;;;19.73;61.38;94992.66;5096201;28;20185;-72
2022/08/03 05:30:18;;;;;;;7.07;4.97;;;;;;;19.75;61.03;95001.41;5096308;28;20616;-72
2022/08/03 05:32:46;;;;;;;6.63;5.07;;;;;;;19.81;60.66;95000.56;5095346;28;20207;-71
2022/08/03 05:35:16;;;;;;;5.97;5.03;;;;;;;19.89;60.13;95012.47;5095235;28;20207;-72
2022/08/03 05:38:05;;;;;;;5.75;4.95;;;;;;;19.92;60.56;95009.66;5095787;28;20211;-71
2022/08/03 05:40:34;;;;;;;9.75;8.90;;;;;;;19.95;60.34;95008.03;5096030;28;20184;-73
2022/08/03 05:43:02;;;;;;;10.60;9.73;;;;;;;20.01;60.12;95011.16;5095047;28;20200;-73
2022/08/03 05:45:30;;;;;;;9.13;7.28;;;;;;;20.07;59.28;95012.31;5095518;28;20214;-72
2022/08/03 05:47:58;;;;;;;8.38;7.68;;;;;;;20.11;59.09;95013.84;5095737;28;20588;-73
2022/08/03 05:50:26;;;;;;;5.93;5.22;;;;;;;20.14;59.11;95007.44;5096174;28;20204;-72
2022/08/03 05:52:57;;;;;;;4.55;4.15;;;;;;;20.17;58.56;95008.59;5095221;28;20192;-72
2022/08/03 05:55:25;;;;;;;3.95;3.65;;;;;;;20.20;58.14;95005.78;5095245;28;20263;-73
2022/08/03 05:57:53;;;;;;;4.15;3.30;;;;;;;20.27;57.87;95012.50;5094833;28;20196;-73
2022/08/03 06:00:21;;;;;;;3.92;3.50;;;;;;;20.31;57.87;95005.66;5094927;28;20195;-71
2022/08/03 06:02:50;;;;;;;3.13;2.90;;;;;;;20.35;58.00;95014.00;5094666;28;20215;-70
2022/08/03 06:05:17;;;;;;;3.80;3.40;;;;;;;20.38;57.89;95015.97;5095727;28;20208;-71
2022/08/03 06:07:46;;;;;;;3.40;3.10;;;;;;;20.41;57.65;95017.94;5094036;28;20204;-71
2022/08/03 06:10:14;;;;;;;3.53;3.25;;;;;;;20.46;57.56;95019.50;5094977;28;20545;-72
2022/08/03 06:12:46;;;;;;;3.85;3.55;;;;;;;20.51;57.33;95017.03;5094497;28;20201;-71
2022/08/03 06:15:15;;;;;;;4.20;3.47;;;;;;;20.55;57.46;95012.22;5094560;28;20222;-71
2022/08/03 06:17:47;;;;;;;3.63;3.33;;;;;;;20.60;57.33;95013.75;5095189;28;20185;-70
2022/08/03 06:20:16;;;;;;;4.78;3.92;;;;;;;20.60;57.84;95017.34;5095381;28;20187;-73
2022/08/03 06:22:43;;;;;;;3.22;3.03;;;;;;;20.63;57.50;95018.53;5094563;28;20207;-72
2022/08/03 06:25:10;;;;;;;4.57;3.45;;;;;;;20.64;56.70;95018.09;5095314;28;20216;-71
2022/08/03 06:27:38;;;;;;;4.57;3.25;;;;;;;20.72;56.56;95015.19;5095304;28;20611;-71
2022/08/03 06:30:12;;;;;;;4.25;3.85;;;;;;;20.76;56.30;95018.75;5095584;28;20180;-71
2022/08/03 06:32:39;;;;;;;3.75;3.45;;;;;;;20.80;56.58;95023.06;5093747;28;20219;-71
2022/08/03 06:35:07;;;;;;;3.60;3.30;;;;;;;20.81;56.68;95024.69;5094590;28;20193;-71
2022/08/03 06:37:43;;;;;;;4.38;4.00;;;;;;;20.86;56.57;95023.41;5095063;28;20189;-71
2022/08/03 06:40:14;;;;;;;3.58;3.20;;;;;;;20.92;56.37;95022.53;5094340;28;20192;-72
2022/08/03 06:42:43;;;;;;;4.35;3.63;;;;;;;20.99;56.33;95013.25;5094654;28;20196;-72
2022/08/03 06:45:16;;;;;;;3.78;3.40;;;;;;;21.08;56.20;95015.50;5094809;28;20216;-71
2022/08/03 06:47:44;;;;;;;6.03;3.67;;;;;;;21.15;56.12;95004.97;5094865;28;20191;-72
2022/08/03 06:50:12;;;;;;;3.20;3.00;;;;;;;21.18;56.00;95013.78;5095338;28;20188;-70
2022/08/03 06:52:41;;;;;;;4.75;3.45;;;;;;;21.22;55.94;95012.50;5094585;28;20196;-72
2022/08/03 06:55:08;;;;;;;4.07;3.70;;;;;;;21.29;55.01;95006.78;5094941;28;20248;-72
2022/08/03 06:57:35;;;;;;;4.38;3.20;;;;;;;21.32;54.47;95000.31;5094316;28;20196;-71
2022/08/03 07:00:02;;;;;;;3.78;3.17;;;;;;;21.35;54.80;95010.72;5095349;28;20188;-71
2022/08/03 07:02:32;;;;;;;4.72;3.83;;;;;;;21.39;54.99;95008.66;5094183;28;20220;-71
2022/08/03 07:05:00;;;;;;;3.25;3.05;;;;;;;21.44;54.03;95010.19;5094782;28;20203;-70
2022/08/03 07:07:28;;;;;;;3.30;3.00;;;;;;;21.47;53.56;95011.34;5094221;28;20204;-70
2022/08/03 07:10:00;;;;;;;3.28;2.95;;;;;;;21.51;53.49;95003.66;5094713;28;20196;-71
2022/08/03 07:12:28;;;;;;;4.25;3.08;;;;;;;21.56;53.73;95008.78;5095173;28;20608;-71
2022/08/03 07:14:57;;;;;;;5.65;4.15;;;;;;;21.62;54.20;95021.13;5095177;28;20185;-70
2022/08/03 07:17:24;;;;;;;4.35;3.95;;;;;;;21.68;53.98;95010.19;5093891;28;20208;-69
2022/08/03 07:19:53;;;;;;;5.50;3.97;;;;;;;21.72;53.66;95011.75;5097327;28;20192;-70
2022/08/03 07:22:22;;;;;;;4.50;3.90;;;;;;;21.81;53.86;95011.19;5097523;28;20212;-69
2022/08/03 07:24:50;;;;;;;3.85;3.05;;;;;;;21.84;53.61;95022.34;5097472;28;20220;-69
2022/08/03 07:27:21;;;;;;;3.55;2.95;;;;;;;21.88;53.46;95014.66;5097588;28;20185;-70
2022/08/03 07:29:48;;;;;;;5.22;3.22;;;;;;;21.94;53.65;95017.78;5097533;28;20211;-70
2022/08/03 07:32:16;;;;;;;3.88;3.35;;;;;;;22.00;53.82;95018.06;5098308;28;20196;-70
2022/08/03 07:34:44;;;;;;;3.53;3.20;;;;;;;22.03;53.47;95012.38;5098438;28;20185;-70
2022/08/03 07:37:12;;;;;;;3.35;2.95;;;;;;;22.08;53.62;95011.91;5097480;28;20196;-69
2022/08/03 07:39:39;;;;;;;3.03;2.72;;;;;;;22.22;53.42;95013.69;5097161;28;20196;-70
2022/08/03 07:42:07;;;;;;;3.47;2.80;;;;;;;22.28;53.16;95011.97;5098256;28;20196;-69
2022/08/03 07:44:35;;;;;;;4.68;3.05;;;;;;;22.36;53.10;95018.22;5097672;28;20217;-72
2022/08/03 07:47:05;;;;;;;3.88;3.47;;;;;;;22.41;52.48;95014.16;5097970;28;20230;-73
2022/08/03 07:49:32;;;;;;;3.30;3.10;;;;;;;22.41;51.45;95014.16;5097955;28;20216;-72
2022/08/03 07:54:48;;;;;;;3.05;2.85;;;;;;;22.45;51.15;95017.69;5097039;28;20230;-72
2022/08/03 07:57:16;;;;;;;3.20;3.00;;;;;;;22.46;50.90;95014.44;5098683;28;20199;-71
2022/08/03 07:59:45;;;;;;;3.53;3.22;;;;;;;22.49;50.48;95012.78;5096834;28;20207;-71
2022/08/03 08:02:13;;;;;;;2.97;2.60;;;;;;;22.51;50.30;95024.38;5097441;28;20191;-71
2022/08/03 08:04:39;;;;;;;3.42;3.00;;;;;;;22.56;50.75;95016.25;5097541;28;20184;-70
2022/08/03 08:07:06;;;;;;;3.10;2.83;;;;;;;22.60;50.01;95013.34;5097618;28;20204;-71
2022/08/03 08:09:34;;;;;;;3.60;2.80;;;;;;;22.65;50.53;95021.28;5096637;28;20192;-67
2022/08/03 08:12:09;;;;;;;3.00;2.80;;;;;;;22.76;51.32;95024.66;5097668;28;20193;-70
2022/08/03 08:14:37;;;;;;;3.28;2.97;;;;;;;22.94;50.94;95018.69;5096308;28;20210;-70
2022/08/03 08:17:06;;;;;;;3.55;3.25;;;;;;;23.00;50.51;95021.78;5097267;28;20219;-70
2022/08/03 08:19:33;;;;;;;3.83;3.50;;;;;;;23.06;49.43;95025.69;5096106;28;20212;-70
2022/08/03 08:22:00;;;;;;;2.97;2.78;;;;;;;23.12;48.95;95026.72;5095872;28;20203;-71
2022/08/03 08:24:30;;;;;;;5.53;3.15;;;;;;;23.19;48.62;95015.31;5096574;28;20295;-71
2022/08/03 08:26:58;;;;;;;2.80;2.60;;;;;;;23.22;49.59;95020.09;5097295;28;20189;-70
2022/08/03 08:29:27;;;;;;;4.07;3.67;;;;;;;23.34;49.70;95015.00;5096608;28;20189;-71
2022/08/03 08:31:54;;;;;;;3.00;2.65;;;;;;;23.44;48.89;95017.56;5097019;28;20188;-71
2022/08/03 08:34:23;;;;;;;3.30;3.03;;;;;;;23.51;49.23;95010.97;5096101;28;20204;-72
2022/08/03 08:36:50;;;;;;;3.42;2.90;;;;;;;23.63;48.98;95010.28;5097173;28;20185;-72
2022/08/03 08:39:17;;;;;;;4.28;2.70;;;;;;;23.75;47.60;95011.66;5096072;28;20603;-71
2022/08/03 08:41:44;;;;;;;3.00;2.70;;;;;;;23.90;47.95;95014.91;5096040;28;20188;-71
2022/08/03 08:44:13;;;;;;;3.10;2.58;;;;;;;23.95;46.17;95005.91;5096084;28;20200;-71
2022/08/03 08:46:43;;;;;;;3.70;2.80;;;;;;;23.97;47.46;95009.88;5096548;28;20591;-71
2022/08/03 08:49:12;;;;;;;2.78;2.55;;;;;;;24.06;47.11;95008.44;5095934;28;20631;-71
2022/08/03 08:51:41;;;;;;;2.80;2.60;;;;;;;24.18;45.34;95008.53;5096574;28;20189;-71
2022/08/03 08:54:10;;;;;;;2.40;2.30;;;;;;;24.24;44.80;95003.13;5095383;28;20196;-69
2022/08/03 08:56:38;;;;;;;2.72;2.53;;;;;;;24.29;45.06;95005.41;5095836;28;20193;-70
2022/08/03 08:59:06;;;;;;;2.88;2.65;;;;;;;24.40;45.88;94999.50;5096537;28;20190;-70
2022/08/03 09:01:34;;;;;;;2.90;2.70;;;;;;;24.52;44.41;94995.97;5095431;28;20638;-70
2022/08/03 09:04:06;;;;;;;2.83;2.63;;;;;;;24.57;43.61;94991.78;5096382;28;20187;-68
2022/08/03 09:06:34;;;;;;;2.60;2.50;;;;;;;24.61;44.59;94986.84;5096215;28;20235;-68
2022/08/03 09:09:02;;;;;;;2.75;2.55;;;;;;;24.65;44.37;94981.88;5095540;28;20196;-68
2022/08/03 09:11:30;;;;;;;2.88;2.67;;;;;;;24.73;44.73;94991.75;5095448;28;20193;-68
2022/08/03 09:13:58;;;;;;;3.72;2.55;;;;;;;24.86;45.20;94991.75;5096549;28;20185;-68
2022/08/03 09:16:28;;;;;;;3.00;2.53;;;;;;;25.03;43.33;94986.84;5096217;28;20181;-68
2022/08/03 09:18:56;;;;;;;2.60;2.40;;;;;;;25.18;44.14;94993.66;5095787;28;20185;-68
2022/08/03 09:21:27;;;;;;;2.78;2.50;;;;;;;25.27;43.88;94993.75;5095747;28;20185;-68
2022/08/03 09:23:57;;;;;;;2.70;2.50;;;;;;;25.33;43.75;94994.78;5095188;28;20196;-68
2022/08/03 09:26:26;;;;;;;2.42;2.22;;;;;;;25.41;42.69;94987.66;5095147;28;20673;-68
2022/08/03 09:28:59;;;;;;;2.47;2.38;;;;;;;25.35;43.01;94988.69;5094748;28;20200;-68
2022/08/03 09:31:34;;;;;;;2.55;2.35;;;;;;;25.48;41.84;94988.69;5095684;28;20192;-68
2022/08/03 09:34:03;;;;;;;2.33;2.20;;;;;;;25.71;40.88;94985.53;5096010;28;20195;-68
2022/08/03 09:36:40;;;;;;;2.45;2.30;;;;;;;25.84;42.52;94985.50;5095853;28;20198;-68
2022/08/03 09:39:10;;;;;;;2.60;2.40;;;;;;;25.90;43.24;94989.34;5094964;28;20207;-68
2022/08/03 09:41:39;;;;;;;2.70;2.47;;;;;;;26.01;42.58;94991.81;5094236;28;20637;-68
2022/08/03 09:44:07;;;;;;;4.13;3.00;;;;;;;26.04;42.48;94985.25;5095506;28;20180;-68
2022/08/03 09:46:50;;;;;;;2.47;2.38;;;;;;;26.06;42.51;94992.00;5095199;28;20231;-69
2022/08/03 09:49:19;;;;;;;2.67;2.47;;;;;;;26.12;40.07;94987.38;5091896;28;20211;-68
2022/08/03 09:51:49;;;;;;;2.50;2.30;;;;;;;26.17;41.28;94986.00;5095405;28;20191;-67
2022/08/03 09:54:26;;;;;;;2.80;2.60;;;;;;;26.35;39.25;94977.66;5094588;28;20706;-68
2022/08/03 09:56:54;;;;;;;3.28;2.97;;;;;;;26.40;39.64;94979.94;5095238;28;20565;-68
2022/08/03 09:59:27;;;;;;;3.28;2.17;;;;;;;26.49;40.11;94970.75;5094689;28;20208;-68
2022/08/03 10:01:54;;;;;;;2.80;2.60;;;;;;;26.37;39.72;94975.19;5095417;28;20199;-67
2022/08/03 10:04:22;;;;;;;3.10;2.80;;;;;;;26.24;39.81;94977.25;5095088;28;20208;-68
2022/08/03 10:07:08;;;;;;;3.08;2.78;;;;;;;26.32;41.91;94972.94;5095382;28;20223;-67
2022/08/03 10:09:36;;;;;;;2.88;2.67;;;;;;;26.51;41.16;94961.78;5092766;28;20242;-67
2022/08/03 10:12:11;;;;;;;4.78;3.47;;;;;;;26.71;41.19;94953.78;5094516;28;20253;-70
2022/08/03 10:14:40;;;;;;;3.13;2.92;;;;;;;26.85;38.97;94960.94;5094164;28;20619;-71
2022/08/03 10:17:07;;;;;;;8.00;7.40;;;;;;;26.92;37.93;94957.06;5094375;28;20200;-71
2022/08/03 10:19:36;;;;;;;5.82;4.85;;;;;;;26.96;39.39;94961.31;5077512;28;20204;-72
2022/08/03 10:22:10;;;;;;;5.53;5.13;;;;;;;26.98;39.32;94944.69;5094560;28;20207;-74
2022/08/03 10:24:37;;;;;;;4.70;4.30;;;;;;;26.99;39.66;94956.78;5095425;28;20191;-73
2022/08/03 10:27:09;;;;;;;4.20;3.90;;;;;;;26.93;39.30;94952.97;5095357;28;20200;-72
2022/08/03 10:29:41;;;;;;;3.80;3.50;;;;;;;26.97;38.51;94959.28;5094860;28;20211;-73
2022/08/03 10:32:13;;;;;;;3.47;3.28;;;;;;;26.82;37.90;94947.72;5094437;28;20211;-73
2022/08/03 10:34:43;;;;;;;3.47;3.17;;;;;;;26.64;38.46;94951.22;5094105;28;20226;-73
2022/08/03 10:37:12;;;;;;;3.42;3.22;;;;;;;26.59;38.77;94940.50;5077574;28;20200;-72
2022/08/03 10:39:52;;;;;;;3.42;3.10;;;;;;;26.69;39.87;94941.34;5094344;28;20204;-72
2022/08/03 10:42:27;;;;;;;3.75;3.10;;;;;;;26.83;39.06;94943.63;5095274;28;20192;-71
2022/08/03 10:45:04;;;;;;;6.18;5.70;;;;;;;26.79;39.49;94942.97;5094881;28;20192;-72
2022/08/03 10:47:32;;;;;;;3.38;3.08;;;;;;;26.69;39.03;94947.81;5095133;28;20216;-73
2022/08/03 10:50:00;;;;;;;3.22;3.00;;;;;;;26.63;38.73;94946.81;5094811;28;20231;-73
2022/08/03 10:52:32;;;;;;;3.13;2.72;;;;;;;26.76;39.36;94941.88;5095167;28;20211;-72
2022/08/03 10:58:03;;;;;;;2.90;2.70;;;;;;;26.99;38.34;94946.25;5097938;28;20241;-71
2022/08/03 11:00:49;;;;;;;2.90;2.70;;;;;;;27.08;38.39;94940.63;5098787;28;20607;-68
2022/08/03 11:03:17;;;;;;;2.80;2.60;;;;;;;27.10;38.74;94940.19;5098680;28;20184;-69
2022/08/03 11:05:47;;;;;;;2.47;2.38;;;;;;;27.21;37.25;94937.75;5097611;28;20253;-69
2022/08/03 11:08:34;;;;;;;2.80;2.60;;;;;;;27.28;37.33;94936.69;5098574;28;20196;-70
2022/08/03 11:11:03;;;;;;;3.20;2.90;;;;;;;27.33;37.30;94930.41;5098479;28;20185;-71
2022/08/03 11:13:32;;;;;;;3.75;2.40;;;;;;;27.38;36.35;94929.00;5097518;28;20188;-71
2022/08/03 11:16:03;;;;;;;3.30;3.10;;;;;;;27.44;37.24;94938.47;5097806;28;20218;-71
2022/08/03 11:18:31;;;;;;;2.90;2.80;;;;;;;27.50;36.55;94925.28;5098538;28;20193;-72
2022/08/03 11:21:00;;;;;;;4.20;3.88;;;;;;;27.52;37.06;94931.25;5098274;28;20180;-73
2022/08/03 11:23:48;;;;;;;3.65;3.00;;;;;;;27.54;36.90;94929.53;5097471;28;20192;-72
2022/08/03 11:26:17;;;;;;;2.80;2.60;;;;;;;27.53;36.76;94913.00;5098499;28;20228;-72
2022/08/03 11:28:46;;;;;;;3.08;2.80;;;;;;;27.52;37.63;94912.19;5097446;28;20235;-72
2022/08/03 11:31:56;;;;;;;2.90;2.70;;;;;;;27.58;37.34;94916.00;5097515;28;20219;-73
2022/08/03 11:34:24;;;;;;;3.00;2.80;;;;;;;27.59;36.93;94920.41;5098196;28;20184;-73
2022/08/03 11:37:24;;;;;;;3.70;3.42;;;;;;;27.53;36.91;94915.84;5098260;28;20188;-72
2022/08/03 11:39:55;;;;;;;2.80;2.60;;;;;;;27.47;36.44;94906.38;5098074;28;20196;-73
2022/08/03 11:42:44;;;;;;;3.10;2.80;;;;;;;27.58;36.11;94903.88;5097392;28;20208;-72
2022/08/03 11:45:13;;;;;;;2.40;2.30;;;;;;;27.71;35.95;94901.72;5097213;28;20231;-73
2022/08/03 11:47:43;;;;;;;3.10;2.80;;;;;;;27.76;36.52;94906.78;5097525;28;20538;-73
2022/08/03 11:50:11;;;;;;;2.72;2.53;;;;;;;27.81;36.25;94909.00;5097066;28;20529;-73
2022/08/03 11:52:40;;;;;;;2.53;2.42;;;;;;;27.84;36.20;94907.28;5098145;28;20597;-72
2022/08/03 11:55:14;;;;;;;2.45;2.35;;;;;;;27.91;36.39;94909.00;5097297;28;20240;-73
2022/08/03 11:57:45;;;;;;;2.70;2.50;;;;;;;28.03;36.39;94914.56;5096901;28;20193;-73
2022/08/03 12:00:27;;;;;;;2.70;2.50;;;;;;;28.01;36.89;94907.78;5098058;28;20305;-72
2022/08/03 12:03:00;;;;;;;2.88;2.60;;;;;;;28.19;36.76;94896.44;5096839;28;20200;-72